WetterOnline ( http://www.wetteronline.de )

Wetter aktuell Greifswalder Bodden

Aktuelles Wetter: Greifswalder Oie (12m)

6-stündlich | Neueste Meldungen
Ortszeit Temperatur Wetter
Di, 23.10. 8:00 9.3° C leichter Regen
Di, 23.10. 2:00 8.7° C bewölkt
Mo, 22.10. 20:00 10.2° C leicht bewölkt
Mo, 22.10. 14:00 12.9° C wolkig
Mo, 22.10. 8:00 11.3° C bedeckt
Mo, 22.10. 2:00 11.6° C bedeckt
So, 21.10. 20:00 12.5° C bedeckt
So, 21.10. 14:00 13.1° C leicht bewölkt
Ortszeit Temperatur Wetter
Di, 23.10. 9:10 9.5° C leichter Regen
Di, 23.10. 9:00 9.2° C leichter Regen
Di, 23.10. 8:50 9.2° C leichter Regen
Di, 23.10. 8:40 9.3° C leichter Regen
Di, 23.10. 8:30 9.2° C leichter Regen
Di, 23.10. 8:20 9.2° C leichter Regen
Di, 23.10. 8:00 9.3° C leichter Regen
Di, 23.10. 7:30 9.2° C leichter Regen
Di, 23.10. 7:00 9.2° C leichter Regen
Di, 23.10. 6:30 9.2° C leichter Regen
Di, 23.10. 6:00 9.1° C leichter Regen
Ortszeit Relative Feuchte Sichtweite
Di, 23.10. 8:00 87% 10 km
Di, 23.10. 2:00 81% 30 km
Mo, 22.10. 20:00 74% 35 km
Mo, 22.10. 14:00 61% 30 km
Mo, 22.10. 8:00 89% 6 km
Mo, 22.10. 2:00 81% 22 km
So, 21.10. 20:00 77% 45 km
So, 21.10. 14:00 77% 14 km
Ortszeit Relative Feuchte Sichtweite
Di, 23.10. 9:10 94% -
Di, 23.10. 9:00 91% 6 km
Di, 23.10. 8:50 91% -
Di, 23.10. 8:40 91% -
Di, 23.10. 8:30 90% 6 km
Di, 23.10. 8:20 90% -
Di, 23.10. 8:00 87% 10 km
Di, 23.10. 7:30 86% 9 km
Di, 23.10. 7:00 84% 15 km
Di, 23.10. 6:30 84% 17 km
Di, 23.10. 6:00 81% 15 km
Ortszeit Niederschlagsmenge Niederschlagsart
Di, 23.10. 8:00 0.8 l/m2 in 12 Std. Regen
Di, 23.10. 2:00 0.1 l/m2 in 6 Std. Sprühregen
Mo, 22.10. 20:00 0.1 l/m2 in 12 Std. -
Mo, 22.10. 14:00 0.1 l/m2 in 6 Std. Regen
Mo, 22.10. 8:00 0.1 l/m2 in 12 Std. Sprühregen
Mo, 22.10. 2:00 0.0 l/m2 in 6 Std. -
So, 21.10. 20:00 0.0 l/m2 in 12 Std. -
So, 21.10. 14:00 0.0 l/m2 in 6 Std. -
Ortszeit Niederschlagsmenge Niederschlagsart
Di, 23.10. 9:10 keine Meldung -
Di, 23.10. 9:00 0.9 l/m2 in 1 Std. Regen
Di, 23.10. 8:50 keine Meldung -
Di, 23.10. 8:40 keine Meldung -
Di, 23.10. 8:30 0.4 l/m2 in 1 Std. -
Di, 23.10. 8:20 keine Meldung -
Di, 23.10. 8:00 0.5 l/m2 in 1 Std. Regen
Di, 23.10. 7:30 0.2 l/m2 in 1 Std. -
Di, 23.10. 7:00 0.1 l/m2 in 1 Std. Regen
Di, 23.10. 6:30 0.1 l/m2 in 1 Std. -
Di, 23.10. 6:00 0.3 l/m2 in 1 Std. Regen
Ortszeit Stärke Spitze Richtung
km/h Bft. km/h Grad Sektor
Di, 23.10. 8:00 63 8 87 240° SW
Di, 23.10. 2:00 43 6 58 240° SW
Mo, 22.10. 20:00 32 5 61 300° NW
Mo, 22.10. 14:00 44 6 59 320° NW
Mo, 22.10. 8:00 32 5 43 260° W
Mo, 22.10. 2:00 30 5 39 220° SW
So, 21.10. 20:00 20 4 26 210° SW
So, 21.10. 14:00 18 3 25 240° SW
Ortszeit Stärke Spitze Richtung
km/h Bft. km/h Grad Sektor
Di, 23.10. 9:10 58 7 - 250° W
Di, 23.10. 9:00 61 7 79 240° SW
Di, 23.10. 8:50 61 7 - 240° SW
Di, 23.10. 8:40 59 7 - 240° SW
Di, 23.10. 8:30 61 7 79 240° SW
Di, 23.10. 8:20 61 7 - 240° SW
Di, 23.10. 8:00 63 8 87 240° SW
Di, 23.10. 7:30 65 8 86 240° SW
Di, 23.10. 7:00 63 8 83 240° SW
Di, 23.10. 6:30 61 7 79 240° SW
Di, 23.10. 6:00 61 7 79 230° SW
Ortszeit Untergrenze Bedeckung Gattung
total tief tief mittel hoch
Di, 23.10. 8:00 570 m 7/8 7/8 - - -
Di, 23.10. 2:00 3300 m 8/8 6/8 - - -
Mo, 22.10. 20:00 1080 m 3/8 - - - -
Mo, 22.10. 14:00 1050 m 7/8 6/8 - - -
Mo, 22.10. 8:00 270 m 8/8 8/8 - - -
Mo, 22.10. 2:00 1050 m 8/8 8/8 - - -
So, 21.10. 20:00 2400 m 8/8 8/8 - - -
So, 21.10. 14:00 9000 m 3/8 0/8 - - -
Ortszeit Bedeckungsgrad in Achtel und Wolkenuntergrenze
Di, 23.10. 9:10 7(360m) 8(540m)
Di, 23.10. 9:00 4(420m) 7(570m) 7(750m)
Di, 23.10. 8:50 4(420m) 7(570m) 7(750m)
Di, 23.10. 8:40 5(480m) 7(630m) 7(780m)
Di, 23.10. 8:30 6(540m) 7(720m) 7(1350m)
Di, 23.10. 8:20 6(540m) 7(720m) 7(1350m)
Di, 23.10. 8:00 7(570m) 7(690m)
Di, 23.10. 7:30 5(540m) 8(750m)
Di, 23.10. 7:00 6(570m) 7(840m) 8(1050m)
Di, 23.10. 6:30 6(600m) 7(750m) 8(1140m)
Di, 23.10. 6:00 7(690m) 7(1230m)
Ortszeit Luftdruck NN (hPa) Tendenz (hPa in 3 Std.)
Di, 23.10. 8:00 1008 - 5,9
Di, 23.10. 2:00 1021 - 3,8
Mo, 22.10. 20:00 1026 - 0,4
Mo, 22.10. 14:00 1025 + 0,6
Mo, 22.10. 8:00 1022 - 0,1
Mo, 22.10. 2:00 1024 - 0,9
So, 21.10. 20:00 1026 - 0,4
So, 21.10. 14:00 1028 - 0,7
Ortszeit Luftdruck NN (hPa) Tendenz (hPa in 3 Std.)
Di, 23.10. 9:10 1007 keine Meldung
Di, 23.10. 9:00 1007 - 4,8
Di, 23.10. 8:50 1007 keine Meldung
Di, 23.10. 8:40 1008 keine Meldung
Di, 23.10. 8:30 1008 - 5,5
Di, 23.10. 8:20 1008 keine Meldung
Di, 23.10. 8:00 1008 - 5,9
Di, 23.10. 7:30 1009 - 6,7
Di, 23.10. 7:00 1010 - 7,2
Di, 23.10. 6:30 1011 - 7,5
Di, 23.10. 6:00 1012 - 7,0
Ortszeit Schneehöhe (cm)
Di, 23.10. 8:00 0
Di, 23.10. 2:00 0
Mo, 22.10. 20:00 0
Mo, 22.10. 14:00 0
Mo, 22.10. 8:00 0
Mo, 22.10. 2:00 0
So, 21.10. 20:00 0
So, 21.10. 14:00 0
Ortszeit Schneehöhe (cm)
Di, 23.10. 9:10 0
Di, 23.10. 9:00 0
Di, 23.10. 8:50 0
Di, 23.10. 8:40 0
Di, 23.10. 8:30 0
Di, 23.10. 8:20 0
Di, 23.10. 8:00 0
Di, 23.10. 7:30 0
Di, 23.10. 7:00 0
Di, 23.10. 6:30 0
Di, 23.10. 6:00 0
Link zu dieser Seite / Seite empfehlen

Das Wetter in ...